sensor_id;sensor_type;location;lat;lon;timestamp;temperature;humidity
31129;DHT22;17777;48.770;8.944;2024-01-15T00:02:06;3.60;53.10
31129;DHT22;17777;48.770;8.944;2024-01-15T00:04:41;3.60;53.10
31129;DHT22;17777;48.770;8.944;2024-01-15T00:07:08;3.60;53.10
31129;DHT22;17777;48.770;8.944;2024-01-15T00:09:34;3.70;53.10
31129;DHT22;17777;48.770;8.944;2024-01-15T00:12:01;3.70;53.10
31129;DHT22;17777;48.770;8.944;2024-01-15T00:14:27;3.70;53.00
31129;DHT22;17777;48.770;8.944;2024-01-15T00:16:53;3.70;53.00
31129;DHT22;17777;48.770;8.944;2024-01-15T00:19:24;3.70;52.90
31129;DHT22;17777;48.770;8.944;2024-01-15T00:21:50;3.70;52.90
31129;DHT22;17777;48.770;8.944;2024-01-15T00:24:16;3.80;52.90
31129;DHT22;17777;48.770;8.944;2024-01-15T00:26:41;3.70;52.90
31129;DHT22;17777;48.770;8.944;2024-01-15T00:29:08;3.80;52.90
31129;DHT22;17777;48.770;8.944;2024-01-15T00:31:34;3.70;52.90
31129;DHT22;17777;48.770;8.944;2024-01-15T00:34:00;3.70;52.90
31129;DHT22;17777;48.770;8.944;2024-01-15T00:36:26;3.70;52.80
31129;DHT22;17777;48.770;8.944;2024-01-15T00:38:53;3.70;52.80
31129;DHT22;17777;48.770;8.944;2024-01-15T00:41:19;3.80;52.90
31129;DHT22;17777;48.770;8.944;2024-01-15T00:43:45;3.80;52.80
31129;DHT22;17777;48.770;8.944;2024-01-15T00:46:11;3.80;52.80
31129;DHT22;17777;48.770;8.944;2024-01-15T00:48:37;3.80;52.80
31129;DHT22;17777;48.770;8.944;2024-01-15T00:51:06;3.80;52.80
31129;DHT22;17777;48.770;8.944;2024-01-15T00:53:32;3.80;52.80
31129;DHT22;17777;48.770;8.944;2024-01-15T00:55:58;3.80;52.70
31129;DHT22;17777;48.770;8.944;2024-01-15T00:58:26;3.80;52.80
31129;DHT22;17777;48.770;8.944;2024-01-15T01:00:52;3.80;52.80
31129;DHT22;17777;48.770;8.944;2024-01-15T01:03:18;3.80;52.80
31129;DHT22;17777;48.770;8.944;2024-01-15T01:05:43;3.80;52.90
31129;DHT22;17777;48.770;8.944;2024-01-15T01:08:10;3.80;52.90
31129;DHT22;17777;48.770;8.944;2024-01-15T01:10:36;3.80;52.90
31129;DHT22;17777;48.770;8.944;2024-01-15T01:13:01;3.80;52.90
31129;DHT22;17777;48.770;8.944;2024-01-15T01:15:27;3.80;53.70
31129;DHT22;17777;48.770;8.944;2024-01-15T01:17:53;3.80;53.10
31129;DHT22;17777;48.770;8.944;2024-01-15T01:20:19;3.80;53.10
31129;DHT22;17777;48.770;8.944;2024-01-15T01:22:44;3.80;53.20
31129;DHT22;17777;48.770;8.944;2024-01-15T01:25:10;3.80;53.20
31129;DHT22;17777;48.770;8.944;2024-01-15T01:27:36;3.80;53.20
31129;DHT22;17777;48.770;8.944;2024-01-15T01:30:02;3.90;53.30
31129;DHT22;17777;48.770;8.944;2024-01-15T01:32:28;3.90;53.30
31129;DHT22;17777;48.770;8.944;2024-01-15T01:34:54;3.90;53.30
31129;DHT22;17777;48.770;8.944;2024-01-15T01:37:20;4.00;53.30
31129;DHT22;17777;48.770;8.944;2024-01-15T01:39:45;4.00;54.00
31129;DHT22;17777;48.770;8.944;2024-01-15T01:42:12;4.00;53.30
31129;DHT22;17777;48.770;8.944;2024-01-15T01:44:38;4.00;53.30
31129;DHT22;17777;48.770;8.944;2024-01-15T01:47:04;4.00;53.30
31129;DHT22;17777;48.770;8.944;2024-01-15T01:49:30;4.10;53.30
31129;DHT22;17777;48.770;8.944;2024-01-15T01:51:58;4.10;53.30
31129;DHT22;17777;48.770;8.944;2024-01-15T01:54:27;4.00;53.20
31129;DHT22;17777;48.770;8.944;2024-01-15T01:56:55;4.10;53.20
31129;DHT22;17777;48.770;8.944;2024-01-15T01:59:22;4.10;53.20
31129;DHT22;17777;48.770;8.944;2024-01-15T02:01:49;4.10;53.10
31129;DHT22;17777;48.770;8.944;2024-01-15T02:04:16;4.00;53.10
31129;DHT22;17777;48.770;8.944;2024-01-15T02:06:42;4.10;53.20
31129;DHT22;17777;48.770;8.944;2024-01-15T02:09:08;4.10;53.20
31129;DHT22;17777;48.770;8.944;2024-01-15T02:11:36;4.10;53.20
31129;DHT22;17777;48.770;8.944;2024-01-15T02:14:02;4.10;53.20
31129;DHT22;17777;48.770;8.944;2024-01-15T02:16:28;4.10;53.30
31129;DHT22;17777;48.770;8.944;2024-01-15T02:18:54;4.10;53.20
31129;DHT22;17777;48.770;8.944;2024-01-15T02:21:20;4.10;53.30
31129;DHT22;17777;48.770;8.944;2024-01-15T02:23:45;4.10;53.20
31129;DHT22;17777;48.770;8.944;2024-01-15T02:26:12;4.10;53.20
31129;DHT22;17777;48.770;8.944;2024-01-15T02:28:39;4.20;53.20
31129;DHT22;17777;48.770;8.944;2024-01-15T02:31:05;4.20;53.20
31129;DHT22;17777;48.770;8.944;2024-01-15T02:33:30;4.20;53.20
31129;DHT22;17777;48.770;8.944;2024-01-15T02:35:56;4.20;53.30
31129;DHT22;17777;48.770;8.944;2024-01-15T02:38:22;4.20;53.20
31129;DHT22;17777;48.770;8.944;2024-01-15T02:40:49;4.20;53.20
31129;DHT22;17777;48.770;8.944;2024-01-15T02:43:15;4.20;53.20
31129;DHT22;17777;48.770;8.944;2024-01-15T02:45:40;4.10;53.20
31129;DHT22;17777;48.770;8.944;2024-01-15T02:48:06;4.10;53.20
31129;DHT22;17777;48.770;8.944;2024-01-15T02:50:32;4.10;53.40
31129;DHT22;17777;48.770;8.944;2024-01-15T02:52:58;4.10;53.30
31129;DHT22;17777;48.770;8.944;2024-01-15T02:55:23;4.10;53.30
31129;DHT22;17777;48.770;8.944;2024-01-15T02:57:49;4.20;53.30
31129;DHT22;17777;48.770;8.944;2024-01-15T03:00:15;4.10;53.30
31129;DHT22;17777;48.770;8.944;2024-01-15T03:02:43;4.20;53.30
31129;DHT22;17777;48.770;8.944;2024-01-15T03:05:10;4.20;53.30
31129;DHT22;17777;48.770;8.944;2024-01-15T03:07:36;4.20;53.30
31129;DHT22;17777;48.770;8.944;2024-01-15T03:10:02;4.20;53.30
31129;DHT22;17777;48.770;8.944;2024-01-15T03:12:28;4.20;53.30
31129;DHT22;17777;48.770;8.944;2024-01-15T03:14:54;4.20;53.30
31129;DHT22;17777;48.770;8.944;2024-01-15T03:17:20;4.20;53.40
31129;DHT22;17777;48.770;8.944;2024-01-15T03:19:45;4.20;53.40
31129;DHT22;17777;48.770;8.944;2024-01-15T03:22:11;4.20;53.40
31129;DHT22;17777;48.770;8.944;2024-01-15T03:24:37;4.20;53.40
31129;DHT22;17777;48.770;8.944;2024-01-15T03:27:03;4.30;53.50
31129;DHT22;17777;48.770;8.944;2024-01-15T03:29:29;4.30;53.50
31129;DHT22;17777;48.770;8.944;2024-01-15T03:31:55;4.30;54.10
31129;DHT22;17777;48.770;8.944;2024-01-15T03:34:20;4.40;53.50
31129;DHT22;17777;48.770;8.944;2024-01-15T03:36:46;4.40;53.40
31129;DHT22;17777;48.770;8.944;2024-01-15T03:39:12;4.40;53.40
31129;DHT22;17777;48.770;8.944;2024-01-15T03:41:38;4.50;53.40
31129;DHT22;17777;48.770;8.944;2024-01-15T03:44:04;4.50;53.30
31129;DHT22;17777;48.770;8.944;2024-01-15T03:46:29;4.50;53.30
31129;DHT22;17777;48.770;8.944;2024-01-15T03:48:55;4.50;53.20
31129;DHT22;17777;48.770;8.944;2024-01-15T03:51:21;4.50;53.20
31129;DHT22;17777;48.770;8.944;2024-01-15T03:53:47;4.60;53.30
31129;DHT22;17777;48.770;8.944;2024-01-15T03:56:14;4.60;53.20
31129;DHT22;17777;48.770;8.944;2024-01-15T03:58:39;4.60;53.20
31129;DHT22;17777;48.770;8.944;2024-01-15T04:01:09;4.60;53.10
31129;DHT22;17777;48.770;8.944;2024-01-15T04:03:36;4.60;53.10
31129;DHT22;17777;48.770;8.944;2024-01-15T04:06:02;4.60;53.10
31129;DHT22;17777;48.770;8.944;2024-01-15T04:08:28;4.60;53.10
31129;DHT22;17777;48.770;8.944;2024-01-15T04:10:54;4.70;53.20
31129;DHT22;17777;48.770;8.944;2024-01-15T04:13:20;4.70;53.20
31129;DHT22;17777;48.770;8.944;2024-01-15T04:15:46;4.70;53.20
31129;DHT22;17777;48.770;8.944;2024-01-15T04:18:12;4.70;53.10
31129;DHT22;17777;48.770;8.944;2024-01-15T04:20:37;4.70;53.20
31129;DHT22;17777;48.770;8.944;2024-01-15T04:23:04;4.80;53.10
31129;DHT22;17777;48.770;8.944;2024-01-15T04:25:30;4.80;53.10
31129;DHT22;17777;48.770;8.944;2024-01-15T04:27:56;4.80;53.00
31129;DHT22;17777;48.770;8.944;2024-01-15T04:30:22;4.80;53.00
31129;DHT22;17777;48.770;8.944;2024-01-15T04:32:48;4.80;53.60
31129;DHT22;17777;48.770;8.944;2024-01-15T04:35:14;4.80;53.00
31129;DHT22;17777;48.770;8.944;2024-01-15T04:37:40;4.80;53.00
31129;DHT22;17777;48.770;8.944;2024-01-15T04:40:07;4.80;53.10
31129;DHT22;17777;48.770;8.944;2024-01-15T04:42:33;4.80;53.10
31129;DHT22;17777;48.770;8.944;2024-01-15T04:44:59;4.80;53.10
31129;DHT22;17777;48.770;8.944;2024-01-15T04:47:25;4.80;53.20
31129;DHT22;17777;48.770;8.944;2024-01-15T04:49:51;4.80;53.10
31129;DHT22;17777;48.770;8.944;2024-01-15T04:52:17;4.90;53.10
31129;DHT22;17777;48.770;8.944;2024-01-15T04:54:42;4.90;53.10
31129;DHT22;17777;48.770;8.944;2024-01-15T04:57:08;4.90;53.10
31129;DHT22;17777;48.770;8.944;2024-01-15T04:59:34;4.90;53.00
31129;DHT22;17777;48.770;8.944;2024-01-15T05:02:00;4.90;53.00
31129;DHT22;17777;48.770;8.944;2024-01-15T05:04:25;4.90;53.00
31129;DHT22;17777;48.770;8.944;2024-01-15T05:06:51;4.90;53.00
31129;DHT22;17777;48.770;8.944;2024-01-15T05:09:17;4.90;53.00
31129;DHT22;17777;48.770;8.944;2024-01-15T05:11:43;4.90;53.00
31129;DHT22;17777;48.770;8.944;2024-01-15T05:14:09;4.90;53.10
31129;DHT22;17777;48.770;8.944;2024-01-15T05:16:38;4.90;53.30
31129;DHT22;17777;48.770;8.944;2024-01-15T05:19:04;4.90;53.20
31129;DHT22;17777;48.770;8.944;2024-01-15T05:21:30;4.80;53.10
31129;DHT22;17777;48.770;8.944;2024-01-15T05:23:55;4.80;53.20
31129;DHT22;17777;48.770;8.944;2024-01-15T05:26:21;4.80;53.30
31129;DHT22;17777;48.770;8.944;2024-01-15T05:28:47;4.80;53.30
31129;DHT22;17777;48.770;8.944;2024-01-15T05:31:13;4.70;53.30
31129;DHT22;17777;48.770;8.944;2024-01-15T05:33:39;4.70;53.30
31129;DHT22;17777;48.770;8.944;2024-01-15T05:36:05;4.70;53.30
31129;DHT22;17777;48.770;8.944;2024-01-15T05:38:31;4.70;53.40
31129;DHT22;17777;48.770;8.944;2024-01-15T05:40:57;4.70;53.50
31129;DHT22;17777;48.770;8.944;2024-01-15T05:43:23;4.70;53.50
31129;DHT22;17777;48.770;8.944;2024-01-15T05:45:49;4.70;53.50
31129;DHT22;17777;48.770;8.944;2024-01-15T05:48:14;4.70;53.50
31129;DHT22;17777;48.770;8.944;2024-01-15T05:50:41;4.70;53.50
31129;DHT22;17777;48.770;8.944;2024-01-15T05:53:06;4.70;53.60
31129;DHT22;17777;48.770;8.944;2024-01-15T05:55:32;4.70;53.60
31129;DHT22;17777;48.770;8.944;2024-01-15T05:57:58;4.70;53.60
31129;DHT22;17777;48.770;8.944;2024-01-15T06:00:24;4.60;53.50
31129;DHT22;17777;48.770;8.944;2024-01-15T06:02:49;4.60;53.50
31129;DHT22;17777;48.770;8.944;2024-01-15T06:05:15;4.60;53.50
31129;DHT22;17777;48.770;8.944;2024-01-15T06:07:41;4.60;53.50
31129;DHT22;17777;48.770;8.944;2024-01-15T06:10:07;4.60;53.60
31129;DHT22;17777;48.770;8.944;2024-01-15T06:12:33;4.60;53.60
31129;DHT22;17777;48.770;8.944;2024-01-15T06:14:59;4.60;53.70
31129;DHT22;17777;48.770;8.944;2024-01-15T06:17:25;4.60;53.80
31129;DHT22;17777;48.770;8.944;2024-01-15T06:19:51;4.60;53.70
31129;DHT22;17777;48.770;8.944;2024-01-15T06:22:17;4.70;53.70
31129;DHT22;17777;48.770;8.944;2024-01-15T06:24:43;4.70;53.80
31129;DHT22;17777;48.770;8.944;2024-01-15T06:27:09;4.70;53.70
31129;DHT22;17777;48.770;8.944;2024-01-15T06:29:37;4.70;53.70
31129;DHT22;17777;48.770;8.944;2024-01-15T06:32:04;4.70;53.70
31129;DHT22;17777;48.770;8.944;2024-01-15T06:34:30;4.70;53.70
31129;DHT22;17777;48.770;8.944;2024-01-15T06:36:55;4.70;53.60
31129;DHT22;17777;48.770;8.944;2024-01-15T06:39:21;4.70;53.60
31129;DHT22;17777;48.770;8.944;2024-01-15T06:41:47;4.80;53.50
31129;DHT22;17777;48.770;8.944;2024-01-15T06:44:13;4.80;53.50
31129;DHT22;17777;48.770;8.944;2024-01-15T06:46:42;4.80;53.40
31129;DHT22;17777;48.770;8.944;2024-01-15T06:49:08;4.80;53.40
31129;DHT22;17777;48.770;8.944;2024-01-15T06:51:35;4.80;53.40
31129;DHT22;17777;48.770;8.944;2024-01-15T06:54:01;4.80;53.30
31129;DHT22;17777;48.770;8.944;2024-01-15T06:56:27;4.80;53.30
31129;DHT22;17777;48.770;8.944;2024-01-15T06:58:53;4.80;54.00
31129;DHT22;17777;48.770;8.944;2024-01-15T07:01:18;4.80;53.50
31129;DHT22;17777;48.770;8.944;2024-01-15T07:03:44;4.70;53.40
31129;DHT22;17777;48.770;8.944;2024-01-15T07:06:11;4.70;53.30
31129;DHT22;17777;48.770;8.944;2024-01-15T07:08:38;4.70;53.40
31129;DHT22;17777;48.770;8.944;2024-01-15T07:11:05;4.70;53.30
31129;DHT22;17777;48.770;8.944;2024-01-15T07:13:31;4.70;53.30
31129;DHT22;17777;48.770;8.944;2024-01-15T07:15:57;4.70;53.30
31129;DHT22;17777;48.770;8.944;2024-01-15T07:18:23;4.70;53.30
31129;DHT22;17777;48.770;8.944;2024-01-15T07:20:49;4.70;53.30
31129;DHT22;17777;48.770;8.944;2024-01-15T07:23:15;4.70;53.30
31129;DHT22;17777;48.770;8.944;2024-01-15T07:25:40;4.70;53.30
31129;DHT22;17777;48.770;8.944;2024-01-15T07:28:06;4.80;53.30
31129;DHT22;17777;48.770;8.944;2024-01-15T07:30:32;4.80;53.30
31129;DHT22;17777;48.770;8.944;2024-01-15T07:32:58;4.80;53.30
31129;DHT22;17777;48.770;8.944;2024-01-15T07:35:24;4.80;53.30
31129;DHT22;17777;48.770;8.944;2024-01-15T07:37:50;4.80;53.20
31129;DHT22;17777;48.770;8.944;2024-01-15T07:40:15;4.80;53.30
31129;DHT22;17777;48.770;8.944;2024-01-15T07:42:41;4.90;53.30
31129;DHT22;17777;48.770;8.944;2024-01-15T07:45:10;4.90;53.20
31129;DHT22;17777;48.770;8.944;2024-01-15T07:47:36;4.90;53.20
31129;DHT22;17777;48.770;8.944;2024-01-15T07:50:03;4.90;53.10
31129;DHT22;17777;48.770;8.944;2024-01-15T07:52:30;4.90;53.00
31129;DHT22;17777;48.770;8.944;2024-01-15T07:54:56;5.00;52.90
31129;DHT22;17777;48.770;8.944;2024-01-15T07:57:24;5.00;52.90
31129;DHT22;17777;48.770;8.944;2024-01-15T07:59:50;5.00;52.90
31129;DHT22;17777;48.770;8.944;2024-01-15T08:02:17;5.00;52.80
31129;DHT22;17777;48.770;8.944;2024-01-15T08:04:42;5.00;52.80
31129;DHT22;17777;48.770;8.944;2024-01-15T08:07:09;5.10;52.80
31129;DHT22;17777;48.770;8.944;2024-01-15T08:09:35;5.10;52.70
31129;DHT22;17777;48.770;8.944;2024-01-15T08:12:01;5.10;52.70
31129;DHT22;17777;48.770;8.944;2024-01-15T08:14:27;5.10;52.70
31129;DHT22;17777;48.770;8.944;2024-01-15T08:16:52;5.10;52.60
31129;DHT22;17777;48.770;8.944;2024-01-15T08:19:18;5.10;52.50
31129;DHT22;17777;48.770;8.944;2024-01-15T08:21:45;5.10;52.50
31129;DHT22;17777;48.770;8.944;2024-01-15T08:24:11;5.10;52.40
31129;DHT22;17777;48.770;8.944;2024-01-15T08:26:37;5.10;52.40
31129;DHT22;17777;48.770;8.944;2024-01-15T08:29:03;5.10;52.40
31129;DHT22;17777;48.770;8.944;2024-01-15T08:31:29;5.10;52.40
31129;DHT22;17777;48.770;8.944;2024-01-15T08:33:55;5.10;52.40
31129;DHT22;17777;48.770;8.944;2024-01-15T08:36:21;5.10;52.40
31129;DHT22;17777;48.770;8.944;2024-01-15T08:38:47;5.20;52.40
31129;DHT22;17777;48.770;8.944;2024-01-15T08:41:13;5.20;52.40
31129;DHT22;17777;48.770;8.944;2024-01-15T08:43:39;5.20;52.50
31129;DHT22;17777;48.770;8.944;2024-01-15T08:46:05;5.20;52.40
31129;DHT22;17777;48.770;8.944;2024-01-15T08:48:31;5.30;52.50
31129;DHT22;17777;48.770;8.944;2024-01-15T08:50:57;5.30;52.40
31129;DHT22;17777;48.770;8.944;2024-01-15T08:53:23;5.30;52.30
31129;DHT22;17777;48.770;8.944;2024-01-15T08:55:49;5.30;52.30
31129;DHT22;17777;48.770;8.944;2024-01-15T08:58:15;5.40;52.20
31129;DHT22;17777;48.770;8.944;2024-01-15T09:00:41;5.40;52.20
31129;DHT22;17777;48.770;8.944;2024-01-15T09:03:07;5.40;52.20
31129;DHT22;17777;48.770;8.944;2024-01-15T09:05:36;5.40;52.20
31129;DHT22;17777;48.770;8.944;2024-01-15T09:08:01;5.50;52.20
31129;DHT22;17777;48.770;8.944;2024-01-15T09:10:28;5.50;52.10
31129;DHT22;17777;48.770;8.944;2024-01-15T09:12:54;5.50;52.10
31129;DHT22;17777;48.770;8.944;2024-01-15T09:15:20;5.50;52.10
31129;DHT22;17777;48.770;8.944;2024-01-15T09:17:45;5.50;52.10
31129;DHT22;17777;48.770;8.944;2024-01-15T09:20:11;5.50;52.10
31129;DHT22;17777;48.770;8.944;2024-01-15T09:22:40;5.50;52.10
31129;DHT22;17777;48.770;8.944;2024-01-15T09:25:08;5.50;51.90
31129;DHT22;17777;48.770;8.944;2024-01-15T09:27:35;5.60;52.00
31129;DHT22;17777;48.770;8.944;2024-01-15T09:30:02;5.60;52.00
31129;DHT22;17777;48.770;8.944;2024-01-15T09:32:29;5.60;52.00
31129;DHT22;17777;48.770;8.944;2024-01-15T09:34:55;5.60;51.90
31129;DHT22;17777;48.770;8.944;2024-01-15T09:37:21;5.60;51.90
31129;DHT22;17777;48.770;8.944;2024-01-15T09:39:46;5.60;51.90
31129;DHT22;17777;48.770;8.944;2024-01-15T09:42:13;5.70;52.00
31129;DHT22;17777;48.770;8.944;2024-01-15T09:44:40;5.70;51.90
31129;DHT22;17777;48.770;8.944;2024-01-15T09:47:06;5.60;51.90
31129;DHT22;17777;48.770;8.944;2024-01-15T09:49:33;5.60;51.80
31129;DHT22;17777;48.770;8.944;2024-01-15T09:52:00;5.60;51.90
31129;DHT22;17777;48.770;8.944;2024-01-15T09:54:27;5.70;51.90
31129;DHT22;17777;48.770;8.944;2024-01-15T09:56:54;5.70;51.80
31129;DHT22;17777;48.770;8.944;2024-01-15T09:59:20;5.70;51.90
31129;DHT22;17777;48.770;8.944;2024-01-15T10:01:48;5.70;51.80
31129;DHT22;17777;48.770;8.944;2024-01-15T10:04:15;5.70;51.80
31129;DHT22;17777;48.770;8.944;2024-01-15T10:06:45;5.70;51.80
31129;DHT22;17777;48.770;8.944;2024-01-15T10:09:12;5.70;51.70
31129;DHT22;17777;48.770;8.944;2024-01-15T10:11:42;5.70;51.80
31129;DHT22;17777;48.770;8.944;2024-01-15T10:14:09;5.80;51.80
31129;DHT22;17777;48.770;8.944;2024-01-15T10:16:39;5.80;51.80
31129;DHT22;17777;48.770;8.944;2024-01-15T10:19:05;5.80;51.80
31129;DHT22;17777;48.770;8.944;2024-01-15T10:21:32;5.90;51.80
31129;DHT22;17777;48.770;8.944;2024-01-15T10:24:02;5.80;51.70
31129;DHT22;17777;48.770;8.944;2024-01-15T10:26:29;5.90;51.80
31129;DHT22;17777;48.770;8.944;2024-01-15T10:28:55;5.90;51.80
31129;DHT22;17777;48.770;8.944;2024-01-15T10:31:21;5.90;51.80
31129;DHT22;17777;48.770;8.944;2024-01-15T10:33:48;5.90;51.70
31129;DHT22;17777;48.770;8.944;2024-01-15T10:36:15;5.90;51.70
31129;DHT22;17777;48.770;8.944;2024-01-15T10:38:46;5.90;51.70
31129;DHT22;17777;48.770;8.944;2024-01-15T10:41:12;5.90;51.60
31129;DHT22;17777;48.770;8.944;2024-01-15T10:43:38;5.90;51.70
31129;DHT22;17777;48.770;8.944;2024-01-15T10:46:06;6.00;51.70
31129;DHT22;17777;48.770;8.944;2024-01-15T10:48:33;5.90;51.70
31129;DHT22;17777;48.770;8.944;2024-01-15T10:51:01;6.00;51.80
31129;DHT22;17777;48.770;8.944;2024-01-15T10:53:39;6.00;51.70
31129;DHT22;17777;48.770;8.944;2024-01-15T10:56:06;6.00;51.70
31129;DHT22;17777;48.770;8.944;2024-01-15T10:58:33;6.00;51.80
31129;DHT22;17777;48.770;8.944;2024-01-15T11:01:00;6.00;51.80
31129;DHT22;17777;48.770;8.944;2024-01-15T11:03:27;6.00;51.90
31129;DHT22;17777;48.770;8.944;2024-01-15T11:05:53;6.00;52.00
31129;DHT22;17777;48.770;8.944;2024-01-15T11:08:20;6.10;52.00
31129;DHT22;17777;48.770;8.944;2024-01-15T11:10:55;6.00;52.00
31129;DHT22;17777;48.770;8.944;2024-01-15T11:13:40;6.10;52.30
31129;DHT22;17777;48.770;8.944;2024-01-15T11:16:06;6.10;52.30
31129;DHT22;17777;48.770;8.944;2024-01-15T11:19:01;6.10;52.30
31129;DHT22;17777;48.770;8.944;2024-01-15T11:21:28;6.00;52.40
31129;DHT22;17777;48.770;8.944;2024-01-15T11:23:58;6.00;52.40
31129;DHT22;17777;48.770;8.944;2024-01-15T11:26:45;6.00;52.40
31129;DHT22;17777;48.770;8.944;2024-01-15T11:29:35;6.00;52.50
31129;DHT22;17777;48.770;8.944;2024-01-15T11:34:59;6.10;52.60
31129;DHT22;17777;48.770;8.944;2024-01-15T11:40:22;6.00;52.70
31129;DHT22;17777;48.770;8.944;2024-01-15T11:43:04;6.00;52.70
31129;DHT22;17777;48.770;8.944;2024-01-15T11:45:31;6.00;52.80
31129;DHT22;17777;48.770;8.944;2024-01-15T11:48:12;6.00;52.90
31129;DHT22;17777;48.770;8.944;2024-01-15T11:50:49;6.00;53.00
31129;DHT22;17777;48.770;8.944;2024-01-15T11:53:32;6.00;53.10
31129;DHT22;17777;48.770;8.944;2024-01-15T11:56:14;6.00;53.20
31129;DHT22;17777;48.770;8.944;2024-01-15T11:58:42;5.90;53.10
31129;DHT22;17777;48.770;8.944;2024-01-15T12:01:10;5.90;53.10
31129;DHT22;17777;48.770;8.944;2024-01-15T12:03:36;5.90;53.10
31129;DHT22;17777;48.770;8.944;2024-01-15T12:06:04;5.90;53.30
31129;DHT22;17777;48.770;8.944;2024-01-15T12:08:31;5.90;53.30
31129;DHT22;17777;48.770;8.944;2024-01-15T12:10:57;5.90;53.40
31129;DHT22;17777;48.770;8.944;2024-01-15T12:13:22;5.90;53.50
31129;DHT22;17777;48.770;8.944;2024-01-15T12:15:49;5.90;53.70
31129;DHT22;17777;48.770;8.944;2024-01-15T12:18:17;5.80;53.60
31129;DHT22;17777;48.770;8.944;2024-01-15T12:20:45;5.80;53.80
31129;DHT22;17777;48.770;8.944;2024-01-15T12:23:14;5.80;53.80
31129;DHT22;17777;48.770;8.944;2024-01-15T12:25:42;5.80;53.90
31129;DHT22;17777;48.770;8.944;2024-01-15T12:28:09;5.80;54.00
31129;DHT22;17777;48.770;8.944;2024-01-15T12:30:35;5.80;54.10
31129;DHT22;17777;48.770;8.944;2024-01-15T12:33:06;5.80;54.20
31129;DHT22;17777;48.770;8.944;2024-01-15T12:35:33;5.70;54.40
31129;DHT22;17777;48.770;8.944;2024-01-15T12:38:00;5.70;54.40
31129;DHT22;17777;48.770;8.944;2024-01-15T12:40:31;5.70;54.40
31129;DHT22;17777;48.770;8.944;2024-01-15T12:42:58;5.70;54.50
31129;DHT22;17777;48.770;8.944;2024-01-15T12:45:24;5.70;54.50
31129;DHT22;17777;48.770;8.944;2024-01-15T12:47:49;5.70;54.70
31129;DHT22;17777;48.770;8.944;2024-01-15T12:50:16;5.70;54.70
31129;DHT22;17777;48.770;8.944;2024-01-15T12:52:42;5.70;54.80
31129;DHT22;17777;48.770;8.944;2024-01-15T12:55:33;5.70;54.70
31129;DHT22;17777;48.770;8.944;2024-01-15T12:58:00;5.70;54.80
31129;DHT22;17777;48.770;8.944;2024-01-15T13:00:25;5.60;54.80
31129;DHT22;17777;48.770;8.944;2024-01-15T13:02:51;5.60;54.90
31129;DHT22;17777;48.770;8.944;2024-01-15T13:05:17;5.60;55.00
31129;DHT22;17777;48.770;8.944;2024-01-15T13:07:44;5.60;55.10
31129;DHT22;17777;48.770;8.944;2024-01-15T13:10:10;5.70;55.20
31129;DHT22;17777;48.770;8.944;2024-01-15T13:12:40;5.70;55.20
31129;DHT22;17777;48.770;8.944;2024-01-15T13:15:06;5.70;55.30
31129;DHT22;17777;48.770;8.944;2024-01-15T13:17:37;5.70;55.10
31129;DHT22;17777;48.770;8.944;2024-01-15T13:20:06;5.70;55.20
31129;DHT22;17777;48.770;8.944;2024-01-15T13:22:32;5.70;55.30
31129;DHT22;17777;48.770;8.944;2024-01-15T13:24:58;5.70;55.30
31129;DHT22;17777;48.770;8.944;2024-01-15T13:27:24;5.80;55.40
31129;DHT22;17777;48.770;8.944;2024-01-15T13:29:50;5.80;55.40
31129;DHT22;17777;48.770;8.944;2024-01-15T13:32:23;5.90;55.50
31129;DHT22;17777;48.770;8.944;2024-01-15T13:34:51;5.90;55.60
31129;DHT22;17777;48.770;8.944;2024-01-15T13:37:17;5.90;55.30
31129;DHT22;17777;48.770;8.944;2024-01-15T13:39:43;5.90;55.30
31129;DHT22;17777;48.770;8.944;2024-01-15T13:42:09;5.90;55.30
31129;DHT22;17777;48.770;8.944;2024-01-15T13:44:37;5.90;55.40
31129;DHT22;17777;48.770;8.944;2024-01-15T13:47:03;5.90;55.40
31129;DHT22;17777;48.770;8.944;2024-01-15T13:49:31;6.00;55.50
31129;DHT22;17777;48.770;8.944;2024-01-15T13:51:56;6.00;55.50
31129;DHT22;17777;48.770;8.944;2024-01-15T13:54:22;6.00;55.50
31129;DHT22;17777;48.770;8.944;2024-01-15T13:56:48;6.00;55.50
31129;DHT22;17777;48.770;8.944;2024-01-15T13:59:15;6.00;55.50
31129;DHT22;17777;48.770;8.944;2024-01-15T14:01:42;6.10;55.70
31129;DHT22;17777;48.770;8.944;2024-01-15T14:04:08;6.10;55.90
31129;DHT22;17777;48.770;8.944;2024-01-15T14:06:33;6.10;55.80
31129;DHT22;17777;48.770;8.944;2024-01-15T14:08:59;6.10;55.60
31129;DHT22;17777;48.770;8.944;2024-01-15T14:11:28;6.10;55.50
31129;DHT22;17777;48.770;8.944;2024-01-15T14:13:54;6.20;55.50
31129;DHT22;17777;48.770;8.944;2024-01-15T14:16:20;6.10;55.50
31129;DHT22;17777;48.770;8.944;2024-01-15T14:18:46;6.10;55.40
31129;DHT22;17777;48.770;8.944;2024-01-15T14:21:12;6.10;55.40
31129;DHT22;17777;48.770;8.944;2024-01-15T14:23:37;6.10;55.40
31129;DHT22;17777;48.770;8.944;2024-01-15T14:26:03;6.00;55.30
31129;DHT22;17777;48.770;8.944;2024-01-15T14:28:30;6.00;55.20
31129;DHT22;17777;48.770;8.944;2024-01-15T14:30:56;5.90;55.10
31129;DHT22;17777;48.770;8.944;2024-01-15T14:33:25;5.90;55.00
31129;DHT22;17777;48.770;8.944;2024-01-15T14:35:52;5.90;54.90
31129;DHT22;17777;48.770;8.944;2024-01-15T14:38:18;5.80;54.80
31129;DHT22;17777;48.770;8.944;2024-01-15T14:40:44;5.80;54.90
31129;DHT22;17777;48.770;8.944;2024-01-15T14:43:10;5.70;54.90
31129;DHT22;17777;48.770;8.944;2024-01-15T14:45:36;5.70;54.90
31129;DHT22;17777;48.770;8.944;2024-01-15T14:48:02;5.70;55.00
31129;DHT22;17777;48.770;8.944;2024-01-15T14:50:28;5.60;55.00
31129;DHT22;17777;48.770;8.944;2024-01-15T14:52:54;5.60;55.10
31129;DHT22;17777;48.770;8.944;2024-01-15T14:55:20;5.50;55.00
31129;DHT22;17777;48.770;8.944;2024-01-15T14:57:49;5.50;55.00
31129;DHT22;17777;48.770;8.944;2024-01-15T15:00:15;5.40;55.10
31129;DHT22;17777;48.770;8.944;2024-01-15T15:02:42;5.40;55.10
31129;DHT22;17777;48.770;8.944;2024-01-15T15:05:09;5.30;55.20
31129;DHT22;17777;48.770;8.944;2024-01-15T15:07:39;5.30;55.30
31129;DHT22;17777;48.770;8.944;2024-01-15T15:10:06;5.30;55.40
31129;DHT22;17777;48.770;8.944;2024-01-15T15:12:33;5.20;55.40
31129;DHT22;17777;48.770;8.944;2024-01-15T15:14:59;5.20;55.60
31129;DHT22;17777;48.770;8.944;2024-01-15T15:17:26;5.20;55.60
31129;DHT22;17777;48.770;8.944;2024-01-15T15:19:52;5.20;55.60
31129;DHT22;17777;48.770;8.944;2024-01-15T15:22:19;5.20;55.60
31129;DHT22;17777;48.770;8.944;2024-01-15T15:24:46;5.10;55.50
31129;DHT22;17777;48.770;8.944;2024-01-15T15:27:12;5.10;55.60
31129;DHT22;17777;48.770;8.944;2024-01-15T15:29:37;5.10;55.60
31129;DHT22;17777;48.770;8.944;2024-01-15T15:32:03;5.00;55.50
31129;DHT22;17777;48.770;8.944;2024-01-15T15:34:29;5.10;55.50
31129;DHT22;17777;48.770;8.944;2024-01-15T15:36:55;5.10;55.50
31129;DHT22;17777;48.770;8.944;2024-01-15T15:39:21;5.00;55.30
31129;DHT22;17777;48.770;8.944;2024-01-15T15:41:47;5.00;55.30
31129;DHT22;17777;48.770;8.944;2024-01-15T15:44:15;5.00;55.40
31129;DHT22;17777;48.770;8.944;2024-01-15T15:46:42;5.00;55.40
31129;DHT22;17777;48.770;8.944;2024-01-15T15:49:09;5.00;55.30